Emington, Illinois
Current Conditions -  °F | °C
As of 2:15 AM on Saturday 25 Oct 2014 (Local Time) from KPNT Reporting Station
Overcast Overcast  
Wind Chill: 60°   Ceiling: 2900
Heat Index: 60°   Visibility: 10mi
Dew Point: 53°   Wind: 7mph
Humidity: 78%   Direction: 240°WSW
Pressure: 29.94"   Gusts: NA
Location:  40.97°N, 88.36°W
Report Text: KPNT 250715Z AUTO 24006KT 10SM OVC029 16/12 A2994 RMK AO2 T01560118
Loading
Personal Weather Stations






























Interactive Weather Map
Tropical Storm Tracking
New forecast layout! Learn more

10-Day Weather Forecast

Advertisements
Track Severe Weather on mobile